sensor_id;sensor_type;location;lat;lon;timestamp;pressure;altitude;pressure_sealevel;temperature;humidity
84779;BME280;75010;50.866;20.620;2024-03-08T00:00:19;996;;;-2.6;95
84779;BME280;75010;50.866;20.620;2024-03-08T00:20:16;996;;;-2.7;96
84779;BME280;75010;50.866;20.620;2024-03-08T00:30:04;996;;;-2.8;96
84779;BME280;75010;50.866;20.620;2024-03-08T00:40:14;996;;;-2.8;96
84779;BME280;75010;50.866;20.620;2024-03-08T00:50:10;996;;;-2.9;96
84779;BME280;75010;50.866;20.620;2024-03-08T01:00:19;996;;;-2.9;96
84779;BME280;75010;50.866;20.620;2024-03-08T01:10:16;996;;;-3.1;95
84779;BME280;75010;50.866;20.620;2024-03-08T01:20:09;996;;;-3.2;95
84779;BME280;75010;50.866;20.620;2024-03-08T01:30:14;996;;;-3.2;95
84779;BME280;75010;50.866;20.620;2024-03-08T01:40:14;996;;;-3.3;95
84779;BME280;75010;50.866;20.620;2024-03-08T01:50:03;996;;;-3.3;95
84779;BME280;75010;50.866;20.620;2024-03-08T02:00:03;996;;;-3.3;95
84779;BME280;75010;50.866;20.620;2024-03-08T02:10:10;996;;;-3.3;95
84779;BME280;75010;50.866;20.620;2024-03-08T02:20:06;995;;;-3.4;95
84779;BME280;75010;50.866;20.620;2024-03-08T02:30:03;995;;;-3.4;95
84779;BME280;75010;50.866;20.620;2024-03-08T02:40:05;995;;;-3.5;95
84779;BME280;75010;50.866;20.620;2024-03-08T02:50:06;995;;;-3.6;94
84779;BME280;75010;50.866;20.620;2024-03-08T03:00:04;995;;;-3.6;94
84779;BME280;75010;50.866;20.620;2024-03-08T03:10:13;995;;;-3.7;94
84779;BME280;75010;50.866;20.620;2024-03-08T03:20:15;995;;;-3.7;94
84779;BME280;75010;50.866;20.620;2024-03-08T03:30:23;995;;;-3.8;93
84779;BME280;75010;50.866;20.620;2024-03-08T03:40:10;995;;;-3.8;93
84779;BME280;75010;50.866;20.620;2024-03-08T03:50:12;995;;;-3.9;92
84779;BME280;75010;50.866;20.620;2024-03-08T04:00:04;995;;;-3.9;92
84779;BME280;75010;50.866;20.620;2024-03-08T04:10:09;995;;;-3.9;92
84779;BME280;75010;50.866;20.620;2024-03-08T04:20:20;995;;;-4;92
84779;BME280;75010;50.866;20.620;2024-03-08T04:30:14;995;;;-4;92
84779;BME280;75010;50.866;20.620;2024-03-08T04:40:03;995;;;-4.1;92
84779;BME280;75010;50.866;20.620;2024-03-08T04:50:12;995;;;-4.1;92
84779;BME280;75010;50.866;20.620;2024-03-08T05:00:03;995;;;-4.2;92
84779;BME280;75010;50.866;20.620;2024-03-08T05:10:03;995;;;-4.2;92
84779;BME280;75010;50.866;20.620;2024-03-08T05:20:05;995;;;-4.2;92
84779;BME280;75010;50.866;20.620;2024-03-08T05:30:19;995;;;-4.2;92
84779;BME280;75010;50.866;20.620;2024-03-08T05:40:16;995;;;-4.2;92
84779;BME280;75010;50.866;20.620;2024-03-08T06:00:17;995;;;-4;92
84779;BME280;75010;50.866;20.620;2024-03-08T06:10:15;995;;;-3.7;91
84779;BME280;75010;50.866;20.620;2024-03-08T06:20:14;995;;;-3.7;91
84779;BME280;75010;50.866;20.620;2024-03-08T06:30:09;995;;;-2.9;91
84779;BME280;75010;50.866;20.620;2024-03-08T06:40:09;995;;;-2.9;91
84779;BME280;75010;50.866;20.620;2024-03-08T06:50:05;995;;;-1.2;89
84779;BME280;75010;50.866;20.620;2024-03-08T07:00:14;995;;;-1.2;89
84779;BME280;75010;50.866;20.620;2024-03-08T07:10:05;995;;;2.2;79
84779;BME280;75010;50.866;20.620;2024-03-08T07:20:03;995;;;3.4;74
84779;BME280;75010;50.866;20.620;2024-03-08T07:30:04;995;;;3.4;74
84779;BME280;75010;50.866;20.620;2024-03-08T07:40:15;995;;;4.3;66
84779;BME280;75010;50.866;20.620;2024-03-08T07:50:09;995;;;4.3;66
84779;BME280;75010;50.866;20.620;2024-03-08T08:00:22;995;;;5.5;61
84779;BME280;75010;50.866;20.620;2024-03-08T08:10:22;995;;;5.5;61
84779;BME280;75010;50.866;20.620;2024-03-08T08:20:16;995;;;8.7;52
84779;BME280;75010;50.866;20.620;2024-03-08T08:30:16;995;;;8.7;52
84779;BME280;75010;50.866;20.620;2024-03-08T08:40:24;995;;;11.6;45
84779;BME280;75010;50.866;20.620;2024-03-08T08:50:17;994;;;14.6;39
84779;BME280;75010;50.866;20.620;2024-03-08T09:00:16;994;;;14.6;39
84779;BME280;75010;50.866;20.620;2024-03-08T09:10:11;994;;;16.3;33
84779;BME280;75010;50.866;20.620;2024-03-08T09:20:16;994;;;16.3;33
84779;BME280;75010;50.866;20.620;2024-03-08T09:30:03;994;;;16.3;31
84779;BME280;75010;50.866;20.620;2024-03-08T09:40:04;994;;;16.3;31
84779;BME280;75010;50.866;20.620;2024-03-08T09:50:20;994;;;16.8;30
84779;BME280;75010;50.866;20.620;2024-03-08T10:00:03;994;;;16.8;30
84779;BME280;75010;50.866;20.620;2024-03-08T10:10:04;994;;;18.2;28
84779;BME280;75010;50.866;20.620;2024-03-08T10:20:27;994;;;18.2;27
84779;BME280;75010;50.866;20.620;2024-03-08T10:30:20;994;;;18.2;27
84779;BME280;75010;50.866;20.620;2024-03-08T10:40:19;993;;;18.9;25
84779;BME280;75010;50.866;20.620;2024-03-08T10:50:32;993;;;18.9;25
84779;BME280;75010;50.866;20.620;2024-03-08T11:00:03;993;;;16.8;29
84779;BME280;75010;50.866;20.620;2024-03-08T11:10:18;993;;;16.8;29
84779;BME280;75010;50.866;20.620;2024-03-08T11:20:17;993;;;16.6;30
84779;BME280;75010;50.866;20.620;2024-03-08T11:30:25;993;;;17.5;28
84779;BME280;75010;50.866;20.620;2024-03-08T11:40:26;993;;;17.5;28
84779;BME280;75010;50.866;20.620;2024-03-08T12:00:23;993;;;18.8;25
84779;BME280;75010;50.866;20.620;2024-03-08T12:10:26;993;;;19.3;24
84779;BME280;75010;50.866;20.620;2024-03-08T12:20:18;993;;;19.3;24
84779;BME280;75010;50.866;20.620;2024-03-08T12:30:20;992;;;20.5;24
84779;BME280;75010;50.866;20.620;2024-03-08T12:40:28;992;;;20.5;24
84779;BME280;75010;50.866;20.620;2024-03-08T12:50:10;992;;;21.6;23
84779;BME280;75010;50.866;20.620;2024-03-08T13:00:21;992;;;21.6;23
84779;BME280;75010;50.866;20.620;2024-03-08T13:10:21;992;;;20.7;24
84779;BME280;75010;50.866;20.620;2024-03-08T13:30:14;992;;;20.7;23
84779;BME280;75010;50.866;20.620;2024-03-08T13:40:07;992;;;19.7;23
84779;BME280;75010;50.866;20.620;2024-03-08T13:50:09;992;;;19.7;23
84779;BME280;75010;50.866;20.620;2024-03-08T14:00:13;992;;;20.8;21
84779;BME280;75010;50.866;20.620;2024-03-08T14:10:10;992;;;20.8;21
84779;BME280;75010;50.866;20.620;2024-03-08T14:20:14;992;;;20.3;22
84779;BME280;75010;50.866;20.620;2024-03-08T14:30:35;992;;;20.3;22
84779;BME280;75010;50.866;20.620;2024-03-08T14:50:20;992;;;20.3;23
84779;BME280;75010;50.866;20.620;2024-03-08T15:10:15;991;;;19.5;24
84779;BME280;75010;50.866;20.620;2024-03-08T15:20:29;991;;;18;24
84779;BME280;75010;50.866;20.620;2024-03-08T15:30:03;991;;;18;24
84779;BME280;75010;50.866;20.620;2024-03-08T15:40:26;991;;;17.4;25
84779;BME280;75010;50.866;20.620;2024-03-08T15:50:17;991;;;17;26
84779;BME280;75010;50.866;20.620;2024-03-08T16:00:48;991;;;17;26
84779;BME280;75010;50.866;20.620;2024-03-08T16:10:13;991;;;11.8;33
84779;BME280;75010;50.866;20.620;2024-03-08T16:20:03;991;;;11.8;33
84779;BME280;75010;50.866;20.620;2024-03-08T16:30:23;992;;;10;38
84779;BME280;75010;50.866;20.620;2024-03-08T16:50:02;992;;;7.6;45
84779;BME280;75010;50.866;20.620;2024-03-08T17:10:02;992;;;6.1;51
84779;BME280;75010;50.866;20.620;2024-03-08T17:20:22;992;;;4.9;55
84779;BME280;75010;50.866;20.620;2024-03-08T17:30:25;992;;;4.9;55
84779;BME280;75010;50.866;20.620;2024-03-08T17:40:07;992;;;3.9;58
84779;BME280;75010;50.866;20.620;2024-03-08T17:50:11;992;;;3.9;58
84779;BME280;75010;50.866;20.620;2024-03-08T18:00:36;992;;;3.1;62
84779;BME280;75010;50.866;20.620;2024-03-08T18:10:11;992;;;3.1;62
84779;BME280;75010;50.866;20.620;2024-03-08T18:20:17;992;;;2.3;67
84779;BME280;75010;50.866;20.620;2024-03-08T18:30:12;992;;;2;68
84779;BME280;75010;50.866;20.620;2024-03-08T18:40:04;992;;;2;68
84779;BME280;75010;50.866;20.620;2024-03-08T18:50:03;992;;;1.4;72
84779;BME280;75010;50.866;20.620;2024-03-08T19:00:22;992;;;1.4;73
84779;BME280;75010;50.866;20.620;2024-03-08T19:10:08;992;;;1.4;73
84779;BME280;75010;50.866;20.620;2024-03-08T19:20:18;992;;;1.1;74
84779;BME280;75010;50.866;20.620;2024-03-08T19:30:22;992;;;1.1;74
84779;BME280;75010;50.866;20.620;2024-03-08T19:40:03;992;;;1;75
84779;BME280;75010;50.866;20.620;2024-03-08T19:50:21;992;;;0.9;76
84779;BME280;75010;50.866;20.620;2024-03-08T20:10:19;992;;;0.5;81
84779;BME280;75010;50.866;20.620;2024-03-08T20:20:03;992;;;0.5;81
84779;BME280;75010;50.866;20.620;2024-03-08T20:30:30;992;;;0.1;83
84779;BME280;75010;50.866;20.620;2024-03-08T20:40:13;992;;;-0.1;85
84779;BME280;75010;50.866;20.620;2024-03-08T20:50:24;992;;;-0.1;85
84779;BME280;75010;50.866;20.620;2024-03-08T21:00:54;992;;;-0.5;87
84779;BME280;75010;50.866;20.620;2024-03-08T21:10:17;991;;;-0.6;88
84779;BME280;75010;50.866;20.620;2024-03-08T21:20:12;991;;;-0.6;88
84779;BME280;75010;50.866;20.620;2024-03-08T21:30:03;991;;;-0.7;90
84779;BME280;75010;50.866;20.620;2024-03-08T21:40:23;991;;;-0.7;90
84779;BME280;75010;50.866;20.620;2024-03-08T21:50:03;991;;;-0.7;90
84779;BME280;75010;50.866;20.620;2024-03-08T22:00:24;991;;;-0.9;90
84779;BME280;75010;50.866;20.620;2024-03-08T22:10:06;991;;;-0.9;90
84779;BME280;75010;50.866;20.620;2024-03-08T22:20:12;991;;;-1.1;91
84779;BME280;75010;50.866;20.620;2024-03-08T22:30:08;991;;;-1.2;92
84779;BME280;75010;50.866;20.620;2024-03-08T22:40:03;991;;;-1.2;92
84779;BME280;75010;50.866;20.620;2024-03-08T22:50:02;991;;;-1.2;93
84779;BME280;75010;50.866;20.620;2024-03-08T23:00:16;991;;;-1.2;93
84779;BME280;75010;50.866;20.620;2024-03-08T23:20:15;991;;;-1.5;93
84779;BME280;75010;50.866;20.620;2024-03-08T23:30:03;991;;;-1.5;93
84779;BME280;75010;50.866;20.620;2024-03-08T23:40:24;991;;;-1.6;93
84779;BME280;75010;50.866;20.620;2024-03-08T23:50:08;991;;;-1.8;94
